CST,Max TemperatureF,Mean TemperatureF,Min TemperatureF,Max Dew PointF,MeanDew PointF,Min DewpointF,Max Humidity, Mean Humidity, Min Humidity, Max Sea Level PressureIn, Mean Sea Level PressureIn, Min Sea Level PressureIn, Max VisibilityMiles, Mean VisibilityMiles, Min VisibilityMiles, Max Wind SpeedMPH, Mean Wind SpeedMPH, Max Gust SpeedMPH,PrecipitationIn, CloudCover, Events, WindDirDegrees
2013-12-1,70,53,36,52,44,33,92,68,44,30.27,30.16,30.00,10,9,4,10,3,14,0.00,1,,195
2013-12-2,75,66,56,63,59,52,100,82,64,30.00,29.85,29.76,10,10,6,22,7,33,0.00,6,,203
2013-12-3,79,70,61,70,65,61,100,81,62,29.80,29.76,29.71,10,6,0,23,10,30,0.00,6,Fog,197
2013-12-4,79,74,69,71,69,68,100,87,74,29.91,29.85,29.80,10,5,1,18,10,22,0.00,7,,185
2013-12-5,80,76,71,72,71,69,93,81,69,29.99,29.93,29.89,10,9,3,17,9,22,0.00,7,,182
2013-12-6,73,56,39,56,45,35,100,93,85,30.28,30.07,29.94,10,6,0,22,12,28,0.08,8,Fog-Rain,1
2013-12-7,39,37,34,36,33,30,100,91,82,30.36,30.30,30.26,10,7,2,24,13,31,0.00,8,,13
2013-12-8,44,40,35,43,38,34,100,95,89,30.25,30.13,30.05,10,4,1,10,7,14,1.09,8,Rain,15
2013-12-9,48,44,39,45,43,39,100,93,86,30.20,30.12,30.07,10,6,2,21,10,24,0.01,8,,15
2013-12-10,49,42,35,38,33,30,100,77,54,30.40,30.33,30.22,10,10,9,26,13,33,T,4,,10
2013-12-11,50,41,32,39,35,31,92,77,61,30.45,30.39,30.35,10,10,10,14,6,16,0.00,6,,12
2013-12-12,54,45,35,35,33,31,92,69,45,30.53,30.45,30.36,10,10,10,15,8,20,0.00,0,,22
2013-12-13,66,50,34,59,42,29,89,75,60,30.35,30.13,29.91,10,10,9,12,4,17,T,4,,114
2013-12-14,66,57,48,64,56,41,100,89,77,30.16,29.95,29.84,10,9,1,23,11,30,0.71,8,Rain,288
2013-12-15,52,44,35,40,35,33,100,75,50,30.33,30.27,30.17,10,9,0,22,9,26,0.00,3,Fog,2
2013-12-16,61,46,31,40,33,29,100,67,33,30.37,30.32,30.25,10,6,0,7,1,,0.00,1,Fog,220
2013-12-17,66,49,31,45,37,30,100,66,31,30.36,30.30,30.26,10,4,0,9,1,14,0.00,1,Fog,300
2013-12-18,67,52,36,49,41,35,100,70,40,30.37,30.30,30.21,10,5,0,9,2,17,0.00,2,Fog,173
2013-12-19,74,59,43,62,54,43,93,71,49,30.20,30.09,30.00,10,10,3,20,6,28,0.00,6,,167
2013-12-20,77,72,66,68,66,63,93,84,74,30.03,29.96,29.90,10,10,10,21,10,30,0.00,7,,169
2013-12-21,75,70,64,70,67,63,93,90,87,29.89,29.77,29.69,10,8,1,24,13,36,0.31,8,Rain,182
2013-12-22,67,57,47,63,57,40,100,78,56,30.25,29.99,29.83,10,9,1,18,5,22,0.06,8,Rain-Thunderstorm,342
2013-12-23,50,42,33,38,33,29,79,65,50,30.52,30.39,30.24,10,10,10,22,13,30,0.00,4,,12
2013-12-24,53,41,29,34,30,27,92,68,44,30.57,30.48,30.37,10,10,6,13,5,18,0.00,0,,24
2013-12-25,50,40,29,35,29,24,92,64,36,30.41,30.36,30.32,10,10,10,9,3,12,0.00,1,,31
2013-12-26,60,47,34,37,32,25,82,57,32,30.42,30.35,30.29,10,10,10,15,5,20,0.00,0,,23
2013-12-27,56,50,44,37,35,33,76,60,43,30.45,30.36,30.31,10,10,9,13,7,20,0.00,2,,22
2013-12-28,48,46,44,46,44,37,100,81,61,30.29,30.13,30.03,10,8,4,13,5,16,0.52,7,Rain,350
2013-12-29,63,49,35,44,39,35,100,70,39,30.15,30.08,30.03,10,5,0,8,1,10,0.00,1,Fog,10
2013-12-30,53,48,42,45,42,39,96,84,71,30.36,30.23,30.13,10,10,10,12,4,28,0.00,0,,357
2013-12-31,46,43,40,39,36,34,85,75,65,30.43,30.37,30.30,10,10,10,15,6,17,0.01,2,Rain,26